Terminal Aerodrome Forecast
Issued by NWS

Home | Current Version | Previous Version | Text Only | Print | Product List | Glossary On
Versions: 1 2 3 4 5 6 7 8 9 10 11 12 13 14 15
000
FTUS46 KSEW 301700
TAFBLI
TAF
KBLI 301735Z 3018/3118 00000KT P6SM -RA SCT050 OVC080
     FM310000 11008KT P6SM -RA SCT015 BKN035 OVC050
     FM310400 16005KT P6SM -RA SCT015 OVC030
     FM311100 17005KT P6SM -RA SCT009 OVC015=

USA.gov is the U.S. government's official web portal to all federal, state and local government web resources and services.